Time;durP1;ratioP1;P1;durP2;ratioP2;P2;SDS_P1;SDS_P2;PMS_P1;PMS_P2;Temp;Humidity;BMP_temperature;BMP_pressure;BME280_temperature;BME280_humidity;BME280_pressure;Samples;Min_cycle;Max_cycle;Signal;HPM_P1;HPM_P2
2023/12/21 08:01:55;;;;;;;9.07;6.22;;;;;;;;;;6026955;23;20029;-67
2023/12/21 08:04:20;;;;;;;7.75;5.80;;;;;;;;;;4983928;28;20035;-66
2023/12/21 08:06:46;;;;;;;8.98;6.45;;;;;;;;;;4984904;28;20030;-66
2023/12/21 08:09:11;;;;;;;7.90;6.15;;;;;;;;;;4985378;28;20029;-67
2023/12/21 08:11:37;;;;;;;11.25;6.80;;;;;;;;;;4985246;28;20443;-67
2023/12/21 08:14:03;;;;;;;8.43;6.20;;;;;;;;;;4987371;28;20119;-67
2023/12/21 08:16:28;;;;;;;8.30;6.45;;;;;;;;;;4986258;28;20026;-67
2023/12/21 08:18:54;;;;;;;7.15;6.38;;;;;;;;;;4985493;28;20475;-67
2023/12/21 08:21:19;;;;;;;10.57;7.00;;;;;;;;;;4984881;28;20082;-67
2023/12/21 08:23:45;;;;;;;7.88;6.25;;;;;;;;;;4987893;28;20034;-68
2023/12/21 08:26:11;;;;;;;8.38;6.32;;;;;;;;;;4986122;28;20030;-67
2023/12/21 08:28:37;;;;;;;8.40;6.35;;;;;;;;;;4985594;28;20041;-68
2023/12/21 08:31:04;;;;;;;7.60;6.03;;;;;;;;;;4984615;28;20014;-68
2023/12/21 08:33:30;;;;;;;8.85;6.72;;;;;;;;;;4985032;28;20157;-69
2023/12/21 08:35:56;;;;;;;7.20;5.80;;;;;;;;;;4987531;28;20506;-67
2023/12/21 08:38:21;;;;;;;7.90;6.40;;;;;;;;;;4985968;28;20117;-67
2023/12/21 08:40:47;;;;;;;10.45;6.47;;;;;;;;;;4984842;28;20414;-67
2023/12/21 08:43:12;;;;;;;7.25;5.75;;;;;;;;;;4984505;28;20101;-66
2023/12/21 08:45:38;;;;;;;8.38;6.03;;;;;;;;;;4985640;28;20026;-67
2023/12/21 08:48:05;;;;;;;8.82;6.38;;;;;;;;;;4994491;28;20482;-68
2023/12/21 08:50:30;;;;;;;7.75;6.00;;;;;;;;;;4979478;28;20105;-68
2023/12/21 08:52:59;;;;;;;8.02;6.03;;;;;;;;;;4985111;28;20094;-68
2023/12/21 08:55:24;;;;;;;7.60;6.10;;;;;;;;;;4992922;28;20041;-67
2023/12/21 08:57:50;;;;;;;7.45;5.97;;;;;;;;;;4991036;28;20112;-67
2023/12/21 09:00:16;;;;;;;7.03;5.95;;;;;;;;;;4974468;28;20479;-67
2023/12/21 09:02:42;;;;;;;7.20;5.82;;;;;;;;;;4975186;28;20043;-67
2023/12/21 09:05:08;;;;;;;9.82;6.30;;;;;;;;;;4975708;28;20118;-67
2023/12/21 09:07:34;;;;;;;9.85;6.47;;;;;;;;;;4973422;28;20023;-67
2023/12/21 09:10:00;;;;;;;8.38;6.13;;;;;;;;;;4979288;28;20022;-68
2023/12/21 09:12:25;;;;;;;7.80;5.82;;;;;;;;;;4989049;28;20554;-70
2023/12/21 09:14:52;;;;;;;6.05;5.32;;;;;;;;;;4994765;28;20105;-67
2023/12/21 09:17:19;;;;;;;6.90;5.20;;;;;;;;;;4991251;28;20430;-70
2023/12/21 09:19:44;;;;;;;8.43;5.85;;;;;;;;;;4992014;28;20022;-68
2023/12/21 09:22:10;;;;;;;8.13;5.55;;;;;;;;;;4987445;28;20023;-67
2023/12/21 09:24:38;;;;;;;8.90;5.68;;;;;;;;;;4984887;28;20031;-67
2023/12/21 09:27:03;;;;;;;8.45;5.40;;;;;;;;;;4986663;28;20031;-67
2023/12/21 09:29:31;;;;;;;8.05;6.25;;;;;;;;;;4957842;28;20055;-67
2023/12/21 09:31:57;;;;;;;9.73;4.80;;;;;;;;;;4975316;28;20035;-70
2023/12/21 09:34:23;;;;;;;8.75;4.72;;;;;;;;;;4986510;28;20113;-69
2023/12/21 09:36:48;;;;;;;10.30;4.22;;;;;;;;;;4994392;28;20022;-70
2023/12/21 09:39:14;;;;;;;10.10;4.20;;;;;;;;;;4977030;28;20414;-72
2023/12/21 09:41:39;;;;;;;11.25;3.67;;;;;;;;;;4994146;28;20030;-71
2023/12/21 09:44:05;;;;;;;6.57;3.20;;;;;;;;;;4994216;28;20364;-71
2023/12/21 09:46:38;;;;;;;3.75;3.00;;;;;;;;;;4994229;28;20081;-69
2023/12/21 09:49:06;;;;;;;4.88;3.10;;;;;;;;;;4994547;28;20030;-70
2023/12/21 09:51:34;;;;;;;6.25;3.20;;;;;;;;;;4994280;28;20052;-70
2023/12/21 09:54:01;;;;;;;4.97;3.00;;;;;;;;;;4994246;28;20026;-68
2023/12/21 09:56:28;;;;;;;3.42;2.80;;;;;;;;;;4994087;28;20034;-68
2023/12/21 09:58:56;;;;;;;4.90;3.00;;;;;;;;;;4994129;28;20101;-69
2023/12/21 10:01:21;;;;;;;3.50;2.38;;;;;;;;;;4993944;28;20030;-70
2023/12/21 10:03:47;;;;;;;3.80;2.65;;;;;;;;;;4993618;28;20422;-70
2023/12/21 10:06:13;;;;;;;3.72;2.72;;;;;;;;;;4993678;28;20031;-69
2023/12/21 10:08:39;;;;;;;4.50;2.63;;;;;;;;;;4993853;28;20076;-68
2023/12/21 10:11:07;;;;;;;5.32;2.90;;;;;;;;;;4993794;28;20098;-68
2023/12/21 10:13:34;;;;;;;4.53;3.38;;;;;;;;;;4993868;28;20034;-68
2023/12/21 10:16:01;;;;;;;5.03;3.30;;;;;;;;;;4993650;28;20643;-68
2023/12/21 10:18:27;;;;;;;5.07;3.17;;;;;;;;;;4993590;28;20028;-68
2023/12/21 10:20:54;;;;;;;5.93;3.30;;;;;;;;;;4993582;28;20022;-68
2023/12/21 10:23:20;;;;;;;5.20;3.38;;;;;;;;;;4993856;28;20049;-68
2023/12/21 10:25:46;;;;;;;5.70;3.58;;;;;;;;;;4993726;28;20383;-68
2023/12/21 10:28:12;;;;;;;4.80;3.53;;;;;;;;;;4993440;28;20487;-71
2023/12/21 10:30:38;;;;;;;5.13;3.67;;;;;;;;;;4993350;28;20034;-71
2023/12/21 10:33:04;;;;;;;6.53;3.60;;;;;;;;;;4993809;28;20029;-73
2023/12/21 10:35:29;;;;;;;3.53;3.05;;;;;;;;;;4994214;28;20023;-69
2023/12/21 10:37:55;;;;;;;6.72;3.20;;;;;;;;;;4976261;28;20489;-70
2023/12/21 10:40:24;;;;;;;4.53;3.15;;;;;;;;;;4993116;28;20433;-73
2023/12/21 10:42:51;;;;;;;8.18;3.53;;;;;;;;;;4993198;28;20022;-68
2023/12/21 10:45:21;;;;;;;3.70;2.63;;;;;;;;;;4993545;28;20364;-70
2023/12/21 10:47:51;;;;;;;5.50;3.60;;;;;;;;;;4993464;28;20251;-71
2023/12/21 10:50:20;;;;;;;4.80;2.83;;;;;;;;;;4993321;28;20112;-69
2023/12/21 10:52:47;;;;;;;4.68;3.00;;;;;;;;;;4993206;28;20111;-72
2023/12/21 10:55:16;;;;;;;7.22;3.10;;;;;;;;;;4993151;28;20026;-71
2023/12/21 10:57:43;;;;;;;4.82;2.80;;;;;;;;;;4993150;28;20023;-68
2023/12/21 11:00:15;;;;;;;5.07;3.10;;;;;;;;;;4993311;28;20498;-69
2023/12/21 11:02:45;;;;;;;3.42;2.78;;;;;;;;;;4992880;28;20430;-71
2023/12/21 11:05:20;;;;;;;3.92;2.60;;;;;;;;;;4993075;28;20026;-70
2023/12/21 11:07:50;;;;;;;5.07;2.95;;;;;;;;;;4993163;28;20485;-68
2023/12/21 11:10:21;;;;;;;6.10;3.40;;;;;;;;;;4992952;28;20511;-68
2023/12/21 11:12:47;;;;;;;5.07;3.28;;;;;;;;;;4993008;28;20023;-67
2023/12/21 11:15:15;;;;;;;5.47;2.42;;;;;;;;;;4975800;28;20034;-70
2023/12/21 11:17:44;;;;;;;5.22;2.90;;;;;;;;;;4988271;28;20097;-70
2023/12/21 11:20:14;;;;;;;8.65;2.88;;;;;;;;;;4975060;28;20088;-65
2023/12/21 11:22:40;;;;;;;9.13;2.90;;;;;;;;;;4988846;28;20034;-66
2023/12/21 11:25:12;;;;;;;5.70;3.00;;;;;;;;;;4995094;28;20023;-66
2023/12/21 11:27:41;;;;;;;5.53;2.88;;;;;;;;;;4994893;28;20104;-66
2023/12/21 11:30:11;;;;;;;3.42;2.70;;;;;;;;;;4995869;28;20025;-66
2023/12/21 11:32:41;;;;;;;8.25;2.40;;;;;;;;;;4994273;28;20034;-66
2023/12/21 11:35:21;;;;;;;5.75;2.90;;;;;;;;;;4995495;28;20406;-66
2023/12/21 11:37:56;;;;;;;7.03;2.57;;;;;;;;;;4996161;28;20030;-66
2023/12/21 11:40:23;;;;;;;3.85;2.58;;;;;;;;;;4996547;28;20549;-65
2023/12/21 11:42:50;;;;;;;5.47;2.70;;;;;;;;;;4996509;28;20033;-66
2023/12/21 11:45:24;;;;;;;3.78;2.50;;;;;;;;;;4996439;28;20478;-65
2023/12/21 11:47:52;;;;;;;4.80;2.50;;;;;;;;;;4996561;28;20046;-65
2023/12/21 11:50:20;;;;;;;4.07;2.40;;;;;;;;;;4996358;28;20038;-65
2023/12/21 11:52:48;;;;;;;2.88;2.58;;;;;;;;;;4978948;28;20030;-66
2023/12/21 11:55:23;;;;;;;4.03;2.45;;;;;;;;;;4996580;28;20049;-66
2023/12/21 11:57:49;;;;;;;3.58;2.42;;;;;;;;;;4996313;28;20406;-66
2023/12/21 12:00:16;;;;;;;3.45;2.38;;;;;;;;;;4996049;28;20023;-66
2023/12/21 12:02:45;;;;;;;3.42;2.42;;;;;;;;;;4996012;28;20495;-66
2023/12/21 12:05:11;;;;;;;3.08;2.03;;;;;;;;;;4995867;28;20030;-66
2023/12/21 12:07:37;;;;;;;4.10;2.38;;;;;;;;;;4978021;28;20077;-66
2023/12/21 12:10:03;;;;;;;3.92;2.28;;;;;;;;;;4996291;28;20023;-66
2023/12/21 12:12:29;;;;;;;3.78;2.47;;;;;;;;;;4996194;28;20030;-66
2023/12/21 12:14:55;;;;;;;4.32;2.47;;;;;;;;;;4996078;28;20023;-66
2023/12/21 12:17:21;;;;;;;3.08;2.08;;;;;;;;;;4995932;28;20081;-66
2023/12/21 12:19:46;;;;;;;4.07;2.40;;;;;;;;;;4995994;28;20499;-66
2023/12/21 12:22:12;;;;;;;3.17;2.20;;;;;;;;;;4978357;28;20110;-66
2023/12/21 12:24:39;;;;;;;2.70;2.28;;;;;;;;;;4995849;28;20561;-66
2023/12/21 12:27:05;;;;;;;3.75;2.17;;;;;;;;;;4978154;28;20054;-66
2023/12/21 12:29:31;;;;;;;3.40;2.40;;;;;;;;;;4995947;28;20505;-66
2023/12/21 12:31:56;;;;;;;4.15;2.30;;;;;;;;;;4995964;28;20027;-66
2023/12/21 12:34:23;;;;;;;2.40;2.20;;;;;;;;;;4995354;28;20053;-66
2023/12/21 12:36:55;;;;;;;4.70;2.53;;;;;;;;;;4995855;28;20023;-66
2023/12/21 12:39:24;;;;;;;3.10;2.80;;;;;;;;;;4995682;28;20072;-66
2023/12/21 12:41:58;;;;;;;2.40;2.20;;;;;;;;;;4995772;28;20356;-66
2023/12/21 12:44:25;;;;;;;2.75;2.17;;;;;;;;;;4995457;28;20030;-66
2023/12/21 12:46:50;;;;;;;5.57;2.55;;;;;;;;;;4977822;28;20463;-66
2023/12/21 12:49:16;;;;;;;3.15;2.45;;;;;;;;;;4995307;28;20054;-66
2023/12/21 12:51:42;;;;;;;3.53;2.30;;;;;;;;;;4995183;28;20145;-66
2023/12/21 12:54:07;;;;;;;2.80;2.30;;;;;;;;;;4995042;28;20073;-66
2023/12/21 12:56:47;;;;;;;2.85;2.20;;;;;;;;;;4995124;28;20033;-66
2023/12/21 12:59:12;;;;;;;2.60;2.40;;;;;;;;;;4995171;28;20498;-66
2023/12/21 13:01:38;;;;;;;3.47;2.33;;;;;;;;;;4994875;28;20073;-66
2023/12/21 13:04:04;;;;;;;2.60;2.40;;;;;;;;;;4995007;28;20042;-66
2023/12/21 13:06:29;;;;;;;3.53;2.40;;;;;;;;;;4994949;28;20037;-66
2023/12/21 13:08:56;;;;;;;4.53;2.50;;;;;;;;;;4995210;28;20022;-66
2023/12/21 13:11:22;;;;;;;2.80;2.38;;;;;;;;;;4995163;28;20034;-66
2023/12/21 13:13:48;;;;;;;2.55;2.30;;;;;;;;;;4995096;28;20386;-66
2023/12/21 13:16:19;;;;;;;3.28;2.30;;;;;;;;;;4994774;28;20022;-66
2023/12/21 13:18:45;;;;;;;3.08;2.25;;;;;;;;;;4994986;28;20018;-66
2023/12/21 13:21:14;;;;;;;2.35;2.15;;;;;;;;;;4977166;28;20034;-66
2023/12/21 13:23:39;;;;;;;3.05;2.30;;;;;;;;;;4994536;28;20118;-66
2023/12/21 13:26:06;;;;;;;2.10;1.90;;;;;;;;;;4994815;28;20109;-66
2023/12/21 13:28:31;;;;;;;3.35;2.10;;;;;;;;;;4994523;28;20022;-66
2023/12/21 13:30:57;;;;;;;2.58;2.20;;;;;;;;;;4994336;28;20088;-66
2023/12/21 13:33:23;;;;;;;4.03;2.40;;;;;;;;;;4994701;28;20050;-66
2023/12/21 13:35:48;;;;;;;2.20;2.00;;;;;;;;;;4994439;28;20022;-66
2023/12/21 13:38:15;;;;;;;3.25;2.40;;;;;;;;;;4994574;28;20508;-66
2023/12/21 13:40:41;;;;;;;2.30;1.98;;;;;;;;;;4994596;28;20031;-66
2023/12/21 13:43:07;;;;;;;2.90;2.15;;;;;;;;;;4994414;28;20121;-66
2023/12/21 13:45:33;;;;;;;3.10;2.03;;;;;;;;;;4993908;28;20114;-66
2023/12/21 13:47:59;;;;;;;2.67;2.15;;;;;;;;;;4994136;28;20034;-66
2023/12/21 13:50:24;;;;;;;3.10;2.10;;;;;;;;;;4976798;28;20046;-66
2023/12/21 13:52:50;;;;;;;2.72;2.22;;;;;;;;;;4993962;28;20033;-66
2023/12/21 13:55:15;;;;;;;4.53;2.50;;;;;;;;;;4993932;28;20045;-66
2023/12/21 13:57:42;;;;;;;2.47;2.10;;;;;;;;;;4994269;28;20034;-66
2023/12/21 14:00:09;;;;;;;2.40;2.20;;;;;;;;;;4993868;28;20022;-66
2023/12/21 14:02:35;;;;;;;2.95;2.22;;;;;;;;;;4993918;28;20062;-66
2023/12/21 14:05:01;;;;;;;4.60;2.55;;;;;;;;;;4994136;28;20110;-66
2023/12/21 14:07:27;;;;;;;2.65;2.30;;;;;;;;;;4994386;28;20463;-66
2023/12/21 14:09:52;;;;;;;2.85;2.25;;;;;;;;;;4994087;28;20397;-66
2023/12/21 14:12:18;;;;;;;2.78;2.15;;;;;;;;;;4994007;28;20018;-66
2023/12/21 14:14:43;;;;;;;2.38;1.90;;;;;;;;;;4993810;28;20262;-66
2023/12/21 14:17:09;;;;;;;2.83;2.20;;;;;;;;;;4993671;28;20077;-66
2023/12/21 14:19:35;;;;;;;2.58;2.10;;;;;;;;;;4976470;28;20034;-66
2023/12/21 14:22:00;;;;;;;2.28;2.05;;;;;;;;;;4993471;28;20057;-66
2023/12/21 14:24:26;;;;;;;3.15;2.22;;;;;;;;;;4993534;28;20057;-66
2023/12/21 14:26:51;;;;;;;2.25;1.85;;;;;;;;;;4993476;28;20029;-65
2023/12/21 14:29:17;;;;;;;3.15;2.45;;;;;;;;;;4993732;28;20038;-66
2023/12/21 14:31:43;;;;;;;3.20;2.20;;;;;;;;;;4976051;28;20487;-66
2023/12/21 14:34:09;;;;;;;2.20;2.00;;;;;;;;;;4993483;28;20035;-65
2023/12/21 14:36:36;;;;;;;3.58;2.38;;;;;;;;;;4993515;28;20029;-66
2023/12/21 14:39:01;;;;;;;3.25;2.80;;;;;;;;;;4993176;28;20058;-66
2023/12/21 14:41:27;;;;;;;4.75;2.00;;;;;;;;;;4993119;28;20069;-66
2023/12/21 14:43:53;;;;;;;2.83;2.20;;;;;;;;;;4993189;28;20022;-66
2023/12/21 14:46:18;;;;;;;3.72;1.95;;;;;;;;;;4993263;28;20030;-65
2023/12/21 14:48:44;;;;;;;4.50;2.00;;;;;;;;;;4993508;28;20034;-67
2023/12/21 14:51:11;;;;;;;2.38;1.90;;;;;;;;;;4993150;28;20030;-67
2023/12/21 14:53:36;;;;;;;2.10;1.90;;;;;;;;;;4993093;28;20018;-66
2023/12/21 14:56:02;;;;;;;3.20;2.00;;;;;;;;;;4993226;28;20038;-66
2023/12/21 14:58:28;;;;;;;2.75;2.38;;;;;;;;;;4992270;28;20112;-67
2023/12/21 15:00:53;;;;;;;3.33;2.17;;;;;;;;;;4993075;28;20117;-66
2023/12/21 15:03:19;;;;;;;3.97;2.20;;;;;;;;;;4992720;28;20046;-66
2023/12/21 15:05:44;;;;;;;2.80;1.88;;;;;;;;;;4993046;28;20022;-66
2023/12/21 15:08:10;;;;;;;3.45;2.17;;;;;;;;;;4993068;28;20034;-66
2023/12/21 15:10:36;;;;;;;3.83;1.95;;;;;;;;;;4992993;28;20048;-67
2023/12/21 15:13:02;;;;;;;3.08;2.50;;;;;;;;;;4993050;28;20102;-66
2023/12/21 15:15:28;;;;;;;3.35;2.42;;;;;;;;;;4993353;28;20065;-66
2023/12/21 15:17:53;;;;;;;3.63;2.53;;;;;;;;;;4992778;28;20053;-65
2023/12/21 15:20:19;;;;;;;6.38;2.50;;;;;;;;;;4992625;28;20037;-66
2023/12/21 15:22:45;;;;;;;5.75;2.22;;;;;;;;;;4992937;28;20034;-66
2023/12/21 15:25:10;;;;;;;3.40;2.00;;;;;;;;;;4992809;28;20118;-66
2023/12/21 15:27:36;;;;;;;3.22;2.08;;;;;;;;;;4993196;28;20030;-66
2023/12/21 15:30:04;;;;;;;4.70;2.95;;;;;;;;;;4992881;28;20474;-65
2023/12/21 15:32:30;;;;;;;4.47;2.30;;;;;;;;;;4992806;28;20026;-65
2023/12/21 15:34:56;;;;;;;5.07;2.70;;;;;;;;;;4992873;28;20568;-66
2023/12/21 15:37:21;;;;;;;5.13;2.53;;;;;;;;;;4992723;28;20027;-65
2023/12/21 15:39:47;;;;;;;5.82;2.40;;;;;;;;;;4992752;28;20022;-65
2023/12/21 15:42:13;;;;;;;4.35;2.50;;;;;;;;;;4992657;28;20040;-65
2023/12/21 15:44:38;;;;;;;7.78;2.58;;;;;;;;;;4992829;28;20077;-65
2023/12/21 15:47:04;;;;;;;12.25;3.10;;;;;;;;;;4992709;28;20073;-65
2023/12/21 15:49:29;;;;;;;7.75;2.83;;;;;;;;;;4992755;28;20076;-66
2023/12/21 15:51:55;;;;;;;6.53;2.60;;;;;;;;;;4992989;28;20426;-65
2023/12/21 15:54:20;;;;;;;4.05;2.40;;;;;;;;;;4992625;28;20491;-65
2023/12/21 15:56:46;;;;;;;3.40;2.28;;;;;;;;;;4992872;28;20082;-65
2023/12/21 15:59:13;;;;;;;4.82;2.63;;;;;;;;;;4992649;28;20395;-66
2023/12/21 16:01:40;;;;;;;5.68;2.25;;;;;;;;;;4992356;28;20037;-65
2023/12/21 16:04:05;;;;;;;3.33;2.30;;;;;;;;;;4992496;28;20074;-66
2023/12/21 16:06:32;;;;;;;7.57;2.60;;;;;;;;;;4992668;28;20047;-65
2023/12/21 16:08:58;;;;;;;12.90;3.08;;;;;;;;;;4993809;28;20518;-65
2023/12/21 16:11:23;;;;;;;2.95;2.20;;;;;;;;;;4996047;28;20109;-66
2023/12/21 16:13:49;;;;;;;10.00;2.53;;;;;;;;;;4978500;28;20030;-66
2023/12/21 16:16:14;;;;;;;4.25;2.58;;;;;;;;;;4996133;28;20022;-65
2023/12/21 16:18:40;;;;;;;7.80;2.30;;;;;;;;;;4995904;28;20413;-66
2023/12/21 16:21:06;;;;;;;8.77;2.75;;;;;;;;;;4996009;28;20509;-66
2023/12/21 16:23:31;;;;;;;13.30;2.70;;;;;;;;;;4995791;28;20372;-66
2023/12/21 16:26:00;;;;;;;6.15;3.08;;;;;;;;;;4995822;28;20037;-65
2023/12/21 16:28:26;;;;;;;3.83;2.83;;;;;;;;;;4995729;28;20030;-65
2023/12/21 16:30:51;;;;;;;8.63;2.92;;;;;;;;;;4995576;28;20037;-65
2023/12/21 16:33:17;;;;;;;6.28;3.08;;;;;;;;;;4995604;28;20058;-65
2023/12/21 16:35:43;;;;;;;4.55;2.60;;;;;;;;;;4995469;28;20042;-65
2023/12/21 16:38:10;;;;;;;4.53;2.97;;;;;;;;;;4995640;28;20025;-65
2023/12/21 16:40:36;;;;;;;7.25;3.13;;;;;;;;;;4995406;28;20038;-65
2023/12/21 16:43:01;;;;;;;6.72;3.13;;;;;;;;;;4995447;28;20022;-67
2023/12/21 16:45:27;;;;;;;5.68;3.42;;;;;;;;;;4978044;28;20022;-65
2023/12/21 16:47:52;;;;;;;8.52;3.25;;;;;;;;;;4995313;28;20033;-64
2023/12/21 16:50:18;;;;;;;6.35;3.42;;;;;;;;;;4995543;28;20040;-66
2023/12/21 16:52:44;;;;;;;8.07;2.92;;;;;;;;;;4995213;28;20109;-66
2023/12/21 16:55:10;;;;;;;6.70;3.10;;;;;;;;;;4995229;28;20030;-64
2023/12/21 16:57:36;;;;;;;5.78;3.55;;;;;;;;;;4995213;28;20068;-65
2023/12/21 17:00:05;;;;;;;8.52;3.65;;;;;;;;;;4995098;28;20383;-64
2023/12/21 17:02:30;;;;;;;9.48;3.40;;;;;;;;;;4994812;28;20038;-65
2023/12/21 17:04:57;;;;;;;5.68;3.20;;;;;;;;;;4977681;28;20533;-65
2023/12/21 17:07:23;;;;;;;7.03;3.10;;;;;;;;;;4995045;28;20031;-67
2023/12/21 17:09:49;;;;;;;4.75;3.20;;;;;;;;;;4994945;28;20471;-65
2023/12/21 17:12:14;;;;;;;6.68;3.47;;;;;;;;;;4994720;28;20038;-67
2023/12/21 17:14:40;;;;;;;8.32;3.30;;;;;;;;;;4994877;28;20033;-66
2023/12/21 17:17:06;;;;;;;12.25;3.85;;;;;;;;;;4994863;28;20033;-67
2023/12/21 17:19:31;;;;;;;5.30;3.53;;;;;;;;;;4994635;28;20031;-65
2023/12/21 17:21:58;;;;;;;5.40;3.20;;;;;;;;;;4993852;28;20022;-68
2023/12/21 17:24:24;;;;;;;6.43;3.90;;;;;;;;;;4994936;28;20022;-65
2023/12/21 17:26:49;;;;;;;7.40;4.03;;;;;;;;;;4994706;28;20026;-65
2023/12/21 17:29:15;;;;;;;13.00;4.13;;;;;;;;;;4994696;28;20037;-65
2023/12/21 17:31:41;;;;;;;10.40;3.83;;;;;;;;;;4994831;28;20027;-65
2023/12/21 17:34:06;;;;;;;11.40;3.45;;;;;;;;;;4994429;28;20022;-65
2023/12/21 17:36:32;;;;;;;11.52;3.60;;;;;;;;;;4976776;28;20026;-65
2023/12/21 17:38:57;;;;;;;10.15;3.42;;;;;;;;;;4994461;28;20105;-65
2023/12/21 17:41:23;;;;;;;8.63;3.80;;;;;;;;;;4994185;28;20030;-66
2023/12/21 17:43:48;;;;;;;10.02;4.25;;;;;;;;;;4994312;28;20439;-65
2023/12/21 17:46:15;;;;;;;8.77;3.65;;;;;;;;;;4994230;28;20434;-65
2023/12/21 17:48:41;;;;;;;8.75;3.50;;;;;;;;;;4994120;28;20022;-66
2023/12/21 17:51:07;;;;;;;7.15;3.53;;;;;;;;;;4994184;28;20089;-65
2023/12/21 17:53:33;;;;;;;7.68;3.70;;;;;;;;;;4994028;28;20022;-66
2023/12/21 17:55:58;;;;;;;15.93;4.05;;;;;;;;;;4994077;28;20029;-65
2023/12/21 17:58:25;;;;;;;7.00;3.55;;;;;;;;;;4993976;28;20049;-65
2023/12/21 18:00:50;;;;;;;14.55;4.20;;;;;;;;;;4993855;28;20494;-66
2023/12/21 18:03:16;;;;;;;15.10;4.45;;;;;;;;;;4993734;28;20050;-66
2023/12/21 18:05:43;;;;;;;22.35;4.30;;;;;;;;;;4993886;28;20495;-66
2023/12/21 18:08:09;;;;;;;8.52;3.70;;;;;;;;;;4994090;28;20041;-65
2023/12/21 18:10:35;;;;;;;12.52;3.80;;;;;;;;;;4994096;28;20034;-66
2023/12/21 18:13:00;;;;;;;15.02;4.00;;;;;;;;;;4993703;28;20467;-65
2023/12/21 18:15:28;;;;;;;12.80;3.90;;;;;;;;;;4976446;28;20038;-66
2023/12/21 18:17:53;;;;;;;12.45;4.00;;;;;;;;;;4993561;28;20053;-65
2023/12/21 18:20:21;;;;;;;12.98;4.38;;;;;;;;;;4993647;28;20034;-65
2023/12/21 18:22:47;;;;;;;9.55;4.60;;;;;;;;;;4993738;28;20534;-66
2023/12/21 18:25:12;;;;;;;9.50;3.75;;;;;;;;;;4993456;28;20031;-65
2023/12/21 18:27:38;;;;;;;12.60;4.00;;;;;;;;;;4993575;28;20092;-65
2023/12/21 18:30:04;;;;;;;12.73;4.68;;;;;;;;;;4993365;28;20023;-66
2023/12/21 18:32:30;;;;;;;14.32;5.53;;;;;;;;;;4993133;28;20026;-66
2023/12/21 18:34:56;;;;;;;16.60;5.43;;;;;;;;;;4993368;28;20097;-65
2023/12/21 18:37:22;;;;;;;24.98;5.43;;;;;;;;;;4993270;28;20033;-65
2023/12/21 18:39:47;;;;;;;21.02;5.90;;;;;;;;;;4993371;28;20418;-64
2023/12/21 18:42:13;;;;;;;22.95;6.00;;;;;;;;;;4993546;28;20030;-65
2023/12/21 18:44:39;;;;;;;14.38;4.68;;;;;;;;;;4993779;28;20402;-66
2023/12/21 18:47:05;;;;;;;18.50;4.70;;;;;;;;;;4993057;28;20026;-66
2023/12/21 18:49:31;;;;;;;18.27;5.22;;;;;;;;;;4993089;28;20026;-65
2023/12/21 18:51:56;;;;;;;17.00;5.18;;;;;;;;;;4993089;28;20038;-66
2023/12/21 18:54:22;;;;;;;14.65;4.95;;;;;;;;;;4993442;28;20055;-64
2023/12/21 18:56:48;;;;;;;13.50;5.25;;;;;;;;;;4976000;28;20031;-65
2023/12/21 18:59:14;;;;;;;16.38;4.90;;;;;;;;;;4993274;28;20033;-66
2023/12/21 19:01:40;;;;;;;16.88;4.88;;;;;;;;;;4993246;28;20037;-65
2023/12/21 19:04:05;;;;;;;15.30;5.10;;;;;;;;;;4972204;28;20550;-65
2023/12/21 19:06:31;;;;;;;9.85;4.50;;;;;;;;;;4973521;28;20026;-65
2023/12/21 19:08:56;;;;;;;16.85;4.80;;;;;;;;;;4972448;28;20081;-65
2023/12/21 19:11:23;;;;;;;14.88;5.22;;;;;;;;;;4973591;28;20027;-65
2023/12/21 19:13:49;;;;;;;13.75;5.35;;;;;;;;;;4973607;28;20086;-68
2023/12/21 19:16:16;;;;;;;17.45;5.95;;;;;;;;;;4973685;28;20437;-65
2023/12/21 19:18:42;;;;;;;15.50;5.22;;;;;;;;;;4973550;28;20023;-65
2023/12/21 19:21:11;;;;;;;13.50;5.13;;;;;;;;;;4973363;28;20031;-65
2023/12/21 19:23:37;;;;;;;14.47;5.30;;;;;;;;;;4973512;28;20031;-65
2023/12/21 19:26:03;;;;;;;13.45;4.78;;;;;;;;;;4973520;28;20027;-65
2023/12/21 19:28:31;;;;;;;12.90;4.90;;;;;;;;;;4973738;28;20030;-66
2023/12/21 19:30:59;;;;;;;11.02;4.75;;;;;;;;;;4973363;28;20053;-65
2023/12/21 19:33:30;;;;;;;13.63;4.72;;;;;;;;;;4973704;28;20102;-65
2023/12/21 19:35:58;;;;;;;14.35;5.03;;;;;;;;;;4972134;28;20503;-66
2023/12/21 19:38:24;;;;;;;11.80;4.43;;;;;;;;;;4973394;28;20034;-66
2023/12/21 19:40:50;;;;;;;11.82;4.82;;;;;;;;;;4972165;28;20034;-65
2023/12/21 19:43:16;;;;;;;10.93;5.18;;;;;;;;;;4973394;28;20042;-65
2023/12/21 19:45:42;;;;;;;11.43;4.70;;;;;;;;;;4977035;28;20391;-67
2023/12/21 19:48:08;;;;;;;10.70;5.00;;;;;;;;;;4977262;28;20035;-66
2023/12/21 19:50:39;;;;;;;9.73;4.95;;;;;;;;;;4971227;28;20101;-66
2023/12/21 19:53:05;;;;;;;13.48;5.13;;;;;;;;;;4976895;28;20109;-66
2023/12/21 19:55:30;;;;;;;19.63;5.28;;;;;;;;;;4962391;28;20066;-66
2023/12/21 19:57:56;;;;;;;12.52;4.88;;;;;;;;;;4957564;29;20027;-66
2023/12/21 20:00:21;;;;;;;12.55;4.97;;;;;;;;;;4957577;29;20078;-66
2023/12/21 20:02:47;;;;;;;12.95;5.32;;;;;;;;;;4964544;28;20051;-66
2023/12/21 20:05:12;;;;;;;10.80;4.95;;;;;;;;;;4977211;28;20041;-66
2023/12/21 20:07:38;;;;;;;8.60;4.97;;;;;;;;;;4976713;28;20038;-66
2023/12/21 20:10:04;;;;;;;10.07;5.22;;;;;;;;;;4976495;28;20034;-66
2023/12/21 20:12:29;;;;;;;13.40;5.45;;;;;;;;;;4976576;28;20034;-66
2023/12/21 20:14:55;;;;;;;13.60;5.22;;;;;;;;;;4976612;28;20019;-65
2023/12/21 20:17:20;;;;;;;9.68;4.88;;;;;;;;;;4976943;28;20023;-66
2023/12/21 20:19:46;;;;;;;8.63;5.13;;;;;;;;;;4976706;28;20010;-65
2023/12/21 20:22:12;;;;;;;7.43;4.88;;;;;;;;;;4976313;28;20033;-66
2023/12/21 20:24:37;;;;;;;13.38;4.90;;;;;;;;;;4976567;28;20058;-66
2023/12/21 20:27:03;;;;;;;7.47;4.70;;;;;;;;;;4976459;28;20443;-66
2023/12/21 20:29:28;;;;;;;9.95;4.43;;;;;;;;;;4976248;28;20063;-66
2023/12/21 20:31:54;;;;;;;12.95;4.75;;;;;;;;;;4958883;28;20114;-66
2023/12/21 20:34:20;;;;;;;15.80;5.20;;;;;;;;;;4976312;28;20372;-66
2023/12/21 20:36:45;;;;;;;12.45;5.03;;;;;;;;;;4976102;28;20428;-66
2023/12/21 20:39:11;;;;;;;10.20;5.15;;;;;;;;;;4976076;28;20030;-66
2023/12/21 20:41:36;;;;;;;10.60;5.05;;;;;;;;;;4975931;28;20029;-66
2023/12/21 20:44:02;;;;;;;9.98;4.82;;;;;;;;;;4983575;28;20050;-66
2023/12/21 20:46:27;;;;;;;8.98;4.43;;;;;;;;;;4987095;28;20285;-66
2023/12/21 20:48:53;;;;;;;10.60;4.60;;;;;;;;;;4974958;28;20026;-66
2023/12/21 20:51:18;;;;;;;11.23;4.85;;;;;;;;;;4977856;28;20129;-66
2023/12/21 20:53:44;;;;;;;11.30;5.10;;;;;;;;;;4995185;28;20113;-66
2023/12/21 20:56:09;;;;;;;14.68;5.20;;;;;;;;;;4995190;28;20390;-66
2023/12/21 20:58:35;;;;;;;10.82;4.90;;;;;;;;;;4987540;28;20027;-67
2023/12/21 21:01:04;;;;;;;10.35;4.90;;;;;;;;;;4975604;28;20034;-66
2023/12/21 21:03:36;;;;;;;13.48;4.60;;;;;;;;;;4975621;28;20484;-66
2023/12/21 21:06:05;;;;;;;10.18;4.70;;;;;;;;;;4975956;28;20043;-66
2023/12/21 21:08:31;;;;;;;10.18;4.53;;;;;;;;;;4975431;28;20410;-66
2023/12/21 21:10:57;;;;;;;7.15;4.40;;;;;;;;;;4975544;28;20031;-67
2023/12/21 21:13:22;;;;;;;9.27;4.70;;;;;;;;;;4975498;28;20019;-66
2023/12/21 21:15:48;;;;;;;11.80;5.07;;;;;;;;;;4975420;28;20501;-68
2023/12/21 21:18:13;;;;;;;9.27;4.85;;;;;;;;;;4975348;28;20050;-66
2023/12/21 21:20:39;;;;;;;8.75;4.68;;;;;;;;;;4975399;28;20030;-66
2023/12/21 21:23:05;;;;;;;9.02;4.70;;;;;;;;;;4975418;28;20027;-66
2023/12/21 21:25:30;;;;;;;10.38;5.05;;;;;;;;;;4975365;28;20493;-66
2023/12/21 21:27:56;;;;;;;8.80;5.25;;;;;;;;;;4975446;28;20030;-66
2023/12/21 21:30:22;;;;;;;7.53;4.47;;;;;;;;;;4975408;28;20058;-66
2023/12/21 21:32:49;;;;;;;10.32;4.60;;;;;;;;;;4977592;28;20030;-66
2023/12/21 21:35:14;;;;;;;10.45;4.70;;;;;;;;;;4975066;28;20030;-66
2023/12/21 21:37:40;;;;;;;11.63;4.88;;;;;;;;;;4975097;28;20023;-65
2023/12/21 21:40:06;;;;;;;9.27;4.50;;;;;;;;;;4975044;28;20190;-66
2023/12/21 21:42:32;;;;;;;10.68;4.88;;;;;;;;;;4975177;28;20097;-66
2023/12/21 21:44:57;;;;;;;8.32;4.13;;;;;;;;;;4974946;28;20779;-66
2023/12/21 21:47:23;;;;;;;9.82;5.03;;;;;;;;;;4975344;28;20031;-66
2023/12/21 21:49:48;;;;;;;8.52;4.47;;;;;;;;;;4974996;28;20031;-66
2023/12/21 21:52:14;;;;;;;10.15;4.93;;;;;;;;;;4974786;28;20499;-66
2023/12/21 21:54:39;;;;;;;8.88;4.25;;;;;;;;;;4957347;28;20072;-66
2023/12/21 21:57:05;;;;;;;9.05;4.93;;;;;;;;;;4957322;28;20027;-66
2023/12/21 21:59:30;;;;;;;11.13;4.50;;;;;;;;;;4974699;28;20023;-66
2023/12/21 22:01:56;;;;;;;13.82;4.90;;;;;;;;;;4974509;28;20031;-66
2023/12/21 22:04:21;;;;;;;7.55;4.18;;;;;;;;;;4974622;28;20046;-66
2023/12/21 22:06:47;;;;;;;8.88;4.47;;;;;;;;;;4973986;28;20033;-66
2023/12/21 22:09:13;;;;;;;7.88;4.68;;;;;;;;;;4974481;28;20114;-66
2023/12/21 22:11:41;;;;;;;7.25;4.25;;;;;;;;;;4974345;28;20055;-67
2023/12/21 22:14:06;;;;;;;13.48;4.53;;;;;;;;;;4974327;28;20035;-67
2023/12/21 22:16:32;;;;;;;10.45;4.63;;;;;;;;;;4974376;28;20031;-66
2023/12/21 22:18:58;;;;;;;11.65;4.38;;;;;;;;;;4974224;28;20507;-67
2023/12/21 22:21:23;;;;;;;7.55;4.80;;;;;;;;;;4974145;28;20034;-66
2023/12/21 22:23:49;;;;;;;8.75;4.68;;;;;;;;;;4974348;28;20054;-67
2023/12/21 22:26:19;;;;;;;10.13;4.50;;;;;;;;;;4974108;28;20058;-67
2023/12/21 22:28:45;;;;;;;9.23;4.60;;;;;;;;;;4974139;28;20061;-67
2023/12/21 22:31:10;;;;;;;7.60;4.30;;;;;;;;;;4974216;28;20481;-67
2023/12/21 22:33:36;;;;;;;12.15;4.53;;;;;;;;;;4974268;28;20033;-67